« Back
NWS Peachtree City, Ga » Text Product » ATL Terminal Aerodrome Forecast

Printer-friendly Version
Current Version              Previous Versions:   1  2  3  4  5  6  7  8  9  

Terminal Aerodrome Forecast

FTUS42 KFFC 301130
KATL 301130Z 3012/0118 16005KT P6SM VCSH SCT025 BKN040
      TEMPO 3012/3014 BKN025
     FM301400 16005KT P6SM VCSH BKN035
     FM301800 19005KT P6SM BKN035
     FM302300 14004KT P6SM BKN040
     FM010900 14003KT P6SM OVC025
     FM011500 19005KT P6SM OVC035=

USA.gov is the U.S. government's official web portal to all federal, state and local government web resources and services.